Time;durP1;ratioP1;P1;durP2;ratioP2;P2;SDS_P1;SDS_P2;PMS_P1;PMS_P2;Temp;Humidity;BMP_temperature;BMP_pressure;BME280_temperature;BME280_humidity;BME280_pressure;Samples;Min_cycle;Max_cycle;Signal;HPM_P1;HPM_P2
2022/03/24 00:00:39;;;;;;;48.37;41.90;;;9.00;99.90;;;;;;5035574;28;20390;-75
2022/03/24 00:03:06;;;;;;;48.37;42.23;;;8.90;99.90;;;;;;5035854;28;20273;-75
2022/03/24 00:05:32;;;;;;;51.50;41.03;;;8.90;99.90;;;;;;5035483;28;20365;-75
2022/03/24 00:07:58;;;;;;;50.93;43.20;;;8.90;99.90;;;;;;5034177;28;20342;-74
2022/03/24 00:10:24;;;;;;;47.20;42.00;;;8.80;99.90;;;;;;5034473;28;20288;-74
2022/03/24 00:12:55;;;;;;;52.37;41.60;;;8.80;99.90;;;;;;5034274;28;20367;-74
2022/03/24 00:15:21;;;;;;;50.47;43.70;;;8.80;99.90;;;;;;5035801;28;20049;-74
2022/03/24 00:17:47;;;;;;;50.17;42.90;;;8.80;99.90;;;;;;5036406;28;20053;-74
2022/03/24 00:20:13;;;;;;;49.80;42.70;;;8.80;99.90;;;;;;5034701;28;20124;-74
2022/03/24 00:22:39;;;;;;;48.20;42.70;;;8.70;99.90;;;;;;5035214;28;20060;-74
2022/03/24 00:25:06;;;;;;;49.27;41.23;;;8.80;99.90;;;;;;5035401;28;20768;-74
2022/03/24 00:27:31;;;;;;;48.03;41.85;;;8.80;99.90;;;;;;5034157;28;20342;-74
2022/03/24 00:29:57;;;;;;;48.90;41.40;;;8.70;99.90;;;;;;5034149;28;20088;-74
2022/03/24 00:32:23;;;;;;;49.97;42.97;;;8.70;99.90;;;;;;5035083;28;20044;-74
2022/03/24 00:34:49;;;;;;;51.23;43.20;;;8.70;99.90;;;;;;5034931;28;20046;-74
2022/03/24 00:37:15;;;;;;;47.63;42.40;;;8.60;99.90;;;;;;5035104;28;20099;-74
2022/03/24 00:39:41;;;;;;;49.87;43.03;;;8.60;99.90;;;;;;5035194;28;20049;-74
2022/03/24 00:42:10;;;;;;;47.77;42.37;;;8.60;99.90;;;;;;5034237;28;20516;-74
2022/03/24 00:44:36;;;;;;;53.72;43.90;;;8.60;99.90;;;;;;5034685;28;20276;-74
2022/03/24 00:47:05;;;;;;;52.17;45.53;;;8.60;99.90;;;;;;5034656;28;20108;-74
2022/03/24 00:49:31;;;;;;;50.72;43.38;;;8.50;99.90;;;;;;5034617;28;20041;-74
2022/03/24 00:51:57;;;;;;;54.37;45.90;;;8.50;99.90;;;;;;5034608;28;20057;-72
2022/03/24 00:54:22;;;;;;;53.27;45.50;;;8.50;99.90;;;;;;5033448;28;20285;-73
2022/03/24 00:56:48;;;;;;;53.03;47.13;;;8.50;99.90;;;;;;5034093;28;20919;-74
2022/03/24 00:59:14;;;;;;;53.07;47.00;;;8.40;99.90;;;;;;5034706;28;20084;-73
2022/03/24 01:01:41;;;;;;;54.47;47.53;;;8.40;99.90;;;;;;5033537;28;20056;-74
2022/03/24 01:04:09;;;;;;;57.30;46.58;;;8.40;99.90;;;;;;5034613;28;20051;-74
2022/03/24 01:06:35;;;;;;;60.80;47.78;;;8.40;99.90;;;;;;5034097;28;20111;-74
2022/03/24 01:09:02;;;;;;;55.00;47.63;;;8.40;99.90;;;;;;5033987;28;20053;-74
2022/03/24 01:11:28;;;;;;;56.38;48.50;;;8.30;99.90;;;;;;5034900;28;20056;-74
2022/03/24 01:13:54;;;;;;;58.33;49.80;;;8.30;99.90;;;;;;5032584;28;20033;-74
2022/03/24 01:16:22;;;;;;;59.87;48.97;;;8.30;99.90;;;;;;5034423;28;20128;-74
2022/03/24 01:18:48;;;;;;;58.22;49.03;;;8.20;99.90;;;;;;5033041;28;20045;-74
2022/03/24 01:21:16;;;;;;;57.50;48.67;;;8.20;99.90;;;;;;5034066;28;20095;-74
2022/03/24 01:23:44;;;;;;;57.37;50.00;;;8.20;99.90;;;;;;5033032;28;20069;-74
2022/03/24 01:26:11;;;;;;;60.80;51.42;;;8.20;99.90;;;;;;5034240;28;20283;-73
2022/03/24 01:28:39;;;;;;;61.47;51.42;;;8.20;99.90;;;;;;5033795;28;20056;-73
2022/03/24 01:31:05;;;;;;;65.15;51.55;;;8.10;99.90;;;;;;5034125;28;20553;-73
2022/03/24 01:33:31;;;;;;;70.68;56.00;;;8.00;99.90;;;;;;5034013;28;20135;-74
2022/03/24 01:35:57;;;;;;;66.80;54.90;;;8.00;99.90;;;;;;5033839;28;20093;-73
2022/03/24 01:38:23;;;;;;;62.23;53.57;;;7.90;99.90;;;;;;5032949;28;20054;-74
2022/03/24 01:40:50;;;;;;;68.07;55.45;;;7.80;99.90;;;;;;5033686;28;20433;-74
2022/03/24 01:43:17;;;;;;;67.72;53.78;;;7.80;99.90;;;;;;5033904;28;20033;-73
2022/03/24 01:45:43;;;;;;;61.95;54.00;;;7.80;99.90;;;;;;5033615;28;20130;-74
2022/03/24 01:48:09;;;;;;;69.47;55.67;;;7.80;99.90;;;;;;5033843;28;20045;-74
2022/03/24 01:50:36;;;;;;;69.10;54.03;;;7.80;99.90;;;;;;5033451;28;20438;-75
2022/03/24 01:53:02;;;;;;;66.18;55.33;;;7.80;99.90;;;;;;5033698;28;20133;-73
2022/03/24 01:55:28;;;;;;;62.33;51.47;;;7.80;99.90;;;;;;5032408;28;20041;-73
2022/03/24 01:57:55;;;;;;;71.72;56.03;;;7.80;99.90;;;;;;5032462;28;20999;-73
2022/03/24 02:00:21;;;;;;;72.25;55.08;;;7.80;99.90;;;;;;5033640;28;20064;-73
2022/03/24 02:02:48;;;;;;;64.78;52.33;;;7.80;99.90;;;;;;5033284;28;20045;-73
2022/03/24 02:05:14;;;;;;;67.85;54.97;;;7.80;99.90;;;;;;5033602;28;20133;-73
2022/03/24 02:07:40;;;;;;;69.93;56.30;;;7.70;99.90;;;;;;5031854;28;20136;-74
2022/03/24 02:10:07;;;;;;;72.23;55.83;;;7.70;99.90;;;;;;5033575;28;20440;-74
2022/03/24 02:12:34;;;;;;;67.18;54.63;;;7.70;99.90;;;;;;5032372;28;20474;-73
2022/03/24 02:15:00;;;;;;;67.43;56.33;;;7.80;99.90;;;;;;5033213;28;20417;-73
2022/03/24 02:17:30;;;;;;;65.35;55.05;;;7.80;99.90;;;;;;5033966;28;20045;-73
2022/03/24 02:19:58;;;;;;;65.97;53.40;;;7.80;99.90;;;;;;5032628;28;20405;-73
2022/03/24 02:22:25;;;;;;;66.10;56.55;;;7.70;99.90;;;;;;5032120;28;20088;-73
2022/03/24 02:24:51;;;;;;;65.72;55.53;;;7.70;99.90;;;;;;5032870;28;20057;-73
2022/03/24 02:27:17;;;;;;;70.63;56.83;;;7.70;99.90;;;;;;4999718;28;20049;-73
2022/03/24 02:29:42;;;;;;;66.10;55.67;;;7.60;99.90;;;;;;5031623;28;20052;-74
2022/03/24 02:32:11;;;;;;;70.33;56.30;;;7.60;99.90;;;;;;5032046;28;20076;-74
2022/03/24 02:34:38;;;;;;;70.97;53.75;;;7.60;99.90;;;;;;5033094;28;20057;-74
2022/03/24 02:37:19;;;;;;;67.00;53.70;;;7.60;99.90;;;;;;5032927;28;20053;-74
2022/03/24 02:39:47;;;;;;;66.85;55.03;;;7.70;99.90;;;;;;5032842;28;20107;-74
2022/03/24 02:42:15;;;;;;;66.47;54.20;;;7.70;99.90;;;;;;5032988;28;20046;-74
2022/03/24 02:44:46;;;;;;;67.97;54.53;;;7.60;99.90;;;;;;5032920;28;20176;-74
2022/03/24 02:47:12;;;;;;;65.97;53.58;;;7.60;99.90;;;;;;5032866;28;20049;-74
2022/03/24 02:49:39;;;;;;;68.55;54.30;;;7.50;99.90;;;;;;5032816;28;20058;-73
2022/03/24 02:52:06;;;;;;;65.22;53.15;;;7.50;99.90;;;;;;5031629;28;20041;-73
2022/03/24 02:54:32;;;;;;;68.07;54.63;;;7.50;99.90;;;;;;5031695;28;20049;-73
2022/03/24 02:56:59;;;;;;;67.28;54.70;;;7.40;99.90;;;;;;5032454;28;20052;-73
2022/03/24 02:59:25;;;;;;;67.88;55.28;;;7.50;99.90;;;;;;5033014;28;20041;-73
2022/03/24 03:01:59;;;;;;;66.88;54.97;;;7.50;99.90;;;;;;5032470;28;20132;-73
2022/03/24 03:04:29;;;;;;;65.07;52.75;;;7.50;99.90;;;;;;5032786;28;20049;-73
2022/03/24 03:06:55;;;;;;;66.65;55.15;;;7.40;99.90;;;;;;5032237;28;20060;-74
2022/03/24 03:09:24;;;;;;;68.82;54.65;;;7.40;99.90;;;;;;5032981;28;20053;-73
2022/03/24 03:11:52;;;;;;;70.45;54.97;;;7.30;99.90;;;;;;5032359;28;20049;-74
2022/03/24 03:14:19;;;;;;;70.20;55.35;;;7.40;99.90;;;;;;5032656;28;20121;-73
2022/03/24 03:16:46;;;;;;;71.57;56.22;;;7.30;99.90;;;;;;5032002;28;20037;-74
2022/03/24 03:19:13;;;;;;;67.25;53.67;;;7.30;99.90;;;;;;5014916;28;20045;-73
2022/03/24 03:21:40;;;;;;;66.70;55.35;;;7.20;99.90;;;;;;5032637;28;20068;-73
2022/03/24 03:24:07;;;;;;;70.15;55.15;;;7.20;99.90;;;;;;5032236;28;20116;-74
2022/03/24 03:26:35;;;;;;;72.10;55.92;;;7.20;99.90;;;;;;5032246;28;20456;-73
2022/03/24 03:29:01;;;;;;;68.00;54.42;;;7.20;99.90;;;;;;5031009;28;20057;-74
2022/03/24 03:31:28;;;;;;;70.23;55.73;;;7.20;99.90;;;;;;5031843;28;20057;-73
2022/03/24 03:33:54;;;;;;;68.15;53.58;;;7.20;99.90;;;;;;5036033;28;20080;-74
2022/03/24 03:36:22;;;;;;;67.60;54.97;;;7.20;99.90;;;;;;5036308;28;20060;-74
2022/03/24 03:38:49;;;;;;;70.25;56.03;;;7.20;99.90;;;;;;5035013;28;20474;-74
2022/03/24 03:41:15;;;;;;;70.72;55.83;;;7.10;99.90;;;;;;5036183;28;20049;-73
2022/03/24 03:43:44;;;;;;;72.65;55.88;;;7.10;99.90;;;;;;5036207;28;20121;-73
2022/03/24 03:46:11;;;;;;;77.15;57.80;;;7.10;99.90;;;;;;5036122;28;20132;-73
2022/03/24 03:48:38;;;;;;;67.53;53.65;;;7.10;99.90;;;;;;5036077;28;20056;-73
2022/03/24 03:51:06;;;;;;;66.05;53.83;;;7.00;99.90;;;;;;5035690;28;20057;-73
2022/03/24 03:53:33;;;;;;;67.00;54.15;;;6.90;99.90;;;;;;5035897;28;20095;-73
2022/03/24 03:55:59;;;;;;;68.60;55.95;;;7.00;99.90;;;;;;5035344;28;20493;-73
2022/03/24 03:58:25;;;;;;;70.38;55.88;;;7.00;99.90;;;;;;5035892;28;20037;-74
2022/03/24 04:00:55;;;;;;;71.13;55.70;;;6.90;99.90;;;;;;5035593;28;20097;-74
2022/03/24 04:03:26;;;;;;;71.72;53.65;;;6.90;99.90;;;;;;5003708;28;20057;-74
2022/03/24 04:05:57;;;;;;;68.85;55.53;;;6.90;99.90;;;;;;5034230;28;20049;-74
2022/03/24 04:08:23;;;;;;;70.65;55.03;;;6.90;99.90;;;;;;5035431;28;20508;-73
2022/03/24 04:10:50;;;;;;;73.10;57.05;;;7.00;99.90;;;;;;5035430;28;20080;-73
2022/03/24 04:13:17;;;;;;;73.43;56.92;;;7.00;99.90;;;;;;5035857;28;20041;-73
2022/03/24 04:15:43;;;;;;;73.82;56.88;;;7.00;99.90;;;;;;5036984;28;20053;-73
2022/03/24 04:18:09;;;;;;;77.70;57.20;;;6.90;99.90;;;;;;5034120;28;20045;-73
2022/03/24 04:20:36;;;;;;;72.67;57.47;;;6.90;99.90;;;;;;5035454;28;20069;-73
2022/03/24 04:23:03;;;;;;;77.85;58.28;;;6.80;99.90;;;;;;5035124;28;20045;-74
2022/03/24 04:25:29;;;;;;;71.25;57.20;;;6.80;99.90;;;;;;5035145;28;20501;-73
2022/03/24 04:27:55;;;;;;;70.53;58.23;;;6.80;99.90;;;;;;5035078;28;20100;-74
2022/03/24 04:30:21;;;;;;;78.93;59.10;;;6.70;99.90;;;;;;5035596;28;20316;-73
2022/03/24 04:32:48;;;;;;;73.15;56.38;;;6.70;99.90;;;;;;5017681;28;20049;-73
2022/03/24 04:35:15;;;;;;;69.35;55.97;;;6.70;99.90;;;;;;5035174;28;20050;-74
2022/03/24 04:37:42;;;;;;;74.93;56.88;;;6.60;99.90;;;;;;5035188;28;20045;-73
2022/03/24 04:40:11;;;;;;;74.10;56.28;;;6.70;99.90;;;;;;5033645;28;20053;-74
2022/03/24 04:42:38;;;;;;;70.93;55.55;;;6.70;99.90;;;;;;5016985;28;20103;-73
2022/03/24 04:45:04;;;;;;;70.43;55.88;;;6.60;99.90;;;;;;5034043;28;20052;-74
2022/03/24 04:47:30;;;;;;;73.03;56.10;;;6.60;99.90;;;;;;5033977;28;20115;-73
2022/03/24 04:49:55;;;;;;;75.47;56.57;;;6.60;99.90;;;;;;5033830;28;20478;-73
2022/03/24 04:52:22;;;;;;;70.30;56.43;;;6.60;99.90;;;;;;5034785;28;20040;-73
2022/03/24 04:54:48;;;;;;;74.97;56.30;;;6.60;99.90;;;;;;5034913;28;20049;-73
2022/03/24 04:57:14;;;;;;;73.28;57.50;;;6.60;99.90;;;;;;5034509;28;20056;-73
2022/03/24 04:59:40;;;;;;;70.20;55.03;;;6.50;99.90;;;;;;5033707;28;20041;-73
2022/03/24 05:02:08;;;;;;;74.90;55.27;;;6.50;99.90;;;;;;5034514;28;20500;-73
2022/03/24 05:04:34;;;;;;;71.40;55.38;;;6.50;99.90;;;;;;5034666;28;20050;-73
2022/03/24 05:07:00;;;;;;;68.38;54.38;;;6.40;99.90;;;;;;5034449;28;20049;-73
2022/03/24 05:09:26;;;;;;;75.23;56.13;;;6.40;99.90;;;;;;5032937;28;20482;-73
2022/03/24 05:11:52;;;;;;;72.47;56.00;;;6.50;99.90;;;;;;5033294;28;20389;-73
2022/03/24 05:14:18;;;;;;;74.50;55.80;;;6.50;99.90;;;;;;5033027;28;20092;-73
2022/03/24 05:16:44;;;;;;;71.63;54.97;;;6.40;99.90;;;;;;5033374;28;20053;-73
2022/03/24 05:19:10;;;;;;;71.35;55.05;;;6.40;99.90;;;;;;5032967;28;20458;-74
2022/03/24 05:21:35;;;;;;;72.67;55.30;;;6.40;99.90;;;;;;5033589;28;20088;-74
2022/03/24 05:24:02;;;;;;;71.53;54.97;;;6.40;99.90;;;;;;5032897;28;20045;-74
2022/03/24 05:26:28;;;;;;;67.50;54.28;;;6.40;99.90;;;;;;5033932;28;20041;-74
2022/03/24 05:28:54;;;;;;;75.03;55.10;;;6.40;99.90;;;;;;5033401;28;20079;-73
2022/03/24 05:31:21;;;;;;;80.97;59.67;;;6.40;99.90;;;;;;5033984;28;20124;-73
2022/03/24 05:33:47;;;;;;;78.80;57.92;;;6.40;99.90;;;;;;5034066;28;20539;-73
2022/03/24 05:36:15;;;;;;;80.45;59.20;;;6.40;99.90;;;;;;5033752;28;20046;-74
2022/03/24 05:38:41;;;;;;;79.38;59.33;;;6.40;99.90;;;;;;5034154;28;20068;-74
2022/03/24 05:41:13;;;;;;;76.22;57.50;;;6.30;99.90;;;;;;5016009;28;20106;-74
2022/03/24 05:43:39;;;;;;;80.65;60.42;;;6.30;99.90;;;;;;5033244;28;20064;-73
2022/03/24 05:46:05;;;;;;;77.57;60.63;;;6.20;99.90;;;;;;5032396;28;20057;-74
2022/03/24 05:48:33;;;;;;;78.50;59.47;;;6.30;99.90;;;;;;5032617;28;20109;-74
2022/03/24 05:51:00;;;;;;;76.65;56.83;;;6.30;99.90;;;;;;5033424;28;20072;-74
2022/03/24 05:53:25;;;;;;;78.22;57.90;;;6.30;99.90;;;;;;5033651;28;20038;-74
2022/03/24 05:55:52;;;;;;;82.53;59.20;;;6.30;99.90;;;;;;5033591;28;20045;-74
2022/03/24 05:58:17;;;;;;;74.38;58.90;;;6.30;99.90;;;;;;5032132;28;20096;-74
2022/03/24 06:00:43;;;;;;;78.33;57.77;;;6.30;99.90;;;;;;5033609;28;20085;-74
2022/03/24 06:03:09;;;;;;;78.95;59.17;;;6.30;99.90;;;;;;5032101;28;20152;-74
2022/03/24 06:05:40;;;;;;;78.47;57.67;;;6.40;99.90;;;;;;5033854;28;20064;-74
2022/03/24 06:08:07;;;;;;;75.45;58.22;;;6.40;99.90;;;;;;5031757;28;20057;-74
2022/03/24 06:10:33;;;;;;;78.10;59.13;;;6.40;99.90;;;;;;5033490;28;20053;-74
2022/03/24 06:12:59;;;;;;;79.30;57.97;;;6.60;99.90;;;;;;5033516;28;20128;-77
2022/03/24 06:15:25;;;;;;;75.20;59.03;;;6.50;99.90;;;;;;5035073;28;20054;-74
2022/03/24 06:17:51;;;;;;;79.57;57.97;;;6.50;99.90;;;;;;5033629;28;20497;-74
2022/03/24 06:20:17;;;;;;;77.50;56.07;;;6.50;99.90;;;;;;5032974;28;20045;-74
2022/03/24 06:22:49;;;;;;;77.77;56.97;;;6.60;99.90;;;;;;5032486;28;20136;-74
2022/03/24 06:25:15;;;;;;;76.53;57.50;;;6.70;99.90;;;;;;5032726;28;20776;-74
2022/03/24 06:27:41;;;;;;;78.93;59.30;;;6.70;99.90;;;;;;5032418;28;20054;-74
2022/03/24 06:30:07;;;;;;;77.80;58.07;;;6.70;99.90;;;;;;5031634;28;20060;-74
2022/03/24 06:32:33;;;;;;;77.18;58.08;;;6.80;99.90;;;;;;5033158;28;20478;-74
2022/03/24 06:35:02;;;;;;;85.35;60.63;;;6.90;99.90;;;;;;5015727;28;20049;-73
2022/03/24 06:37:28;;;;;;;82.65;60.22;;;6.90;99.90;;;;;;5032356;28;20482;-74
2022/03/24 06:39:54;;;;;;;85.73;61.87;;;6.90;99.90;;;;;;5033004;28;20050;-74
2022/03/24 06:42:21;;;;;;;84.90;59.20;;;7.00;99.90;;;;;;5032641;28;20404;-74
2022/03/24 06:44:47;;;;;;;83.25;58.72;;;7.10;99.90;;;;;;5032941;28;20067;-74
2022/03/24 06:47:13;;;;;;;83.00;59.30;;;7.10;99.90;;;;;;5032603;28;20049;-74
2022/03/24 06:49:39;;;;;;;81.65;60.88;;;7.20;99.90;;;;;;5031718;28;20061;-74
2022/03/24 06:52:06;;;;;;;84.50;59.63;;;7.40;99.90;;;;;;5031638;28;20046;-75
2022/03/24 06:54:32;;;;;;;85.70;61.38;;;7.40;99.90;;;;;;5031727;28;20481;-74
2022/03/24 06:56:58;;;;;;;86.60;61.57;;;7.50;99.90;;;;;;5032603;28;20136;-74
2022/03/24 06:59:24;;;;;;;81.90;59.80;;;7.60;99.90;;;;;;5032549;28;20049;-74
2022/03/24 07:01:50;;;;;;;81.57;61.53;;;7.90;99.90;;;;;;5031586;28;20370;-74
2022/03/24 07:04:16;;;;;;;84.97;64.00;;;8.90;99.90;;;;;;5032506;28;20046;-75
2022/03/24 07:06:42;;;;;;;89.97;67.83;;;9.60;99.90;;;;;;5033861;28;20049;-75
2022/03/24 07:09:08;;;;;;;86.73;66.43;;;10.70;99.90;;;;;;5036935;28;20058;-75
2022/03/24 07:11:34;;;;;;;88.40;68.90;;;11.70;99.90;;;;;;5036823;28;20288;-75
2022/03/24 07:14:00;;;;;;;82.83;66.43;;;12.40;99.90;;;;;;5035147;28;20308;-75
2022/03/24 07:16:25;;;;;;;90.13;70.80;;;13.10;99.90;;;;;;5035269;28;20053;-74
2022/03/24 07:18:51;;;;;;;85.53;68.83;;;13.60;97.90;;;;;;5036431;28;20481;-75
2022/03/24 07:21:17;;;;;;;85.17;63.57;;;14.30;96.90;;;;;;5035359;28;20053;-74
2022/03/24 07:23:43;;;;;;;87.57;63.40;;;14.80;96.10;;;;;;5036494;28;20046;-74
2022/03/24 07:26:09;;;;;;;86.80;68.27;;;15.40;94.90;;;;;;5036330;28;20481;-74
2022/03/24 07:28:35;;;;;;;78.67;64.70;;;15.50;88.20;;;;;;5035339;28;20045;-74
2022/03/24 07:31:30;;;;;;;78.50;61.80;;;15.80;82.70;;;;;;5036648;28;20283;-74
2022/03/24 07:33:57;;;;;;;76.20;62.93;;;16.60;79.00;;;;;;5019123;28;20057;-74
2022/03/24 07:36:24;;;;;;;72.37;59.80;;;16.80;77.10;;;;;;5036099;28;20286;-74
2022/03/24 07:38:55;;;;;;;72.70;60.10;;;16.80;74.60;;;;;;5036308;28;20284;-74
2022/03/24 07:41:21;;;;;;;69.07;61.50;;;16.80;70.60;;;;;;5035852;28;20303;-75
2022/03/24 07:43:48;;;;;;;67.30;59.90;;;16.90;69.90;;;;;;5036287;28;20406;-74
2022/03/24 07:46:14;;;;;;;67.30;59.10;;;16.60;68.20;;;;;;5035862;28;20287;-79
2022/03/24 07:48:39;;;;;;;63.13;55.37;;;16.00;67.80;;;;;;5035782;28;20288;-78
2022/03/24 07:51:06;;;;;;;62.47;55.63;;;15.20;69.00;;;;;;5036118;28;20103;-74
2022/03/24 07:53:38;;;;;;;59.60;51.40;;;14.70;70.30;;;;;;5034439;28;20422;-74
2022/03/24 07:56:04;;;;;;;61.47;53.87;;;14.20;72.60;;;;;;5036162;28;20277;-74
2022/03/24 07:58:30;;;;;;;61.97;54.97;;;13.90;74.60;;;;;;5035713;28;20752;-74
2022/03/24 08:00:57;;;;;;;62.97;55.20;;;13.50;77.00;;;;;;5034728;28;20383;-74
2022/03/24 08:03:24;;;;;;;71.73;53.63;;;13.30;78.60;;;;;;5035222;28;20482;-74
2022/03/24 08:05:50;;;;;;;64.17;54.73;;;13.20;79.00;;;;;;5034621;28;20284;-73
2022/03/24 08:08:17;;;;;;;66.90;54.20;;;13.00;79.00;;;;;;5034026;28;20370;-75
2022/03/24 08:10:45;;;;;;;64.70;54.37;;;12.90;79.70;;;;;;5035717;28;20290;-74
2022/03/24 08:13:13;;;;;;;72.93;55.13;;;12.90;80.20;;;;;;5035559;28;20303;-77
2022/03/24 08:15:40;;;;;;;61.47;52.00;;;13.00;81.10;;;;;;5037659;28;20295;-74
2022/03/24 08:18:08;;;;;;;62.17;50.07;;;13.00;80.30;;;;;;5035460;28;20291;-74
2022/03/24 08:20:38;;;;;;;61.57;50.30;;;12.90;78.70;;;;;;5034376;28;20752;-74
2022/03/24 08:23:05;;;;;;;61.87;50.77;;;12.90;76.90;;;;;;5018669;28;20644;-74
2022/03/24 08:25:32;;;;;;;60.33;50.20;;;12.90;77.80;;;;;;5035219;28;20387;-74
2022/03/24 08:27:58;;;;;;;64.50;51.10;;;13.00;78.10;;;;;;5035405;28;20284;-74
2022/03/24 08:30:25;;;;;;;60.53;50.07;;;13.00;77.50;;;;;;5034150;28;20311;-74
2022/03/24 08:32:51;;;;;;;60.17;50.57;;;13.10;77.30;;;;;;5034244;28;20300;-74
2022/03/24 08:35:18;;;;;;;58.53;50.13;;;13.10;77.30;;;;;;5034949;28;20284;-74
2022/03/24 08:37:44;;;;;;;62.63;52.37;;;13.10;77.70;;;;;;5035244;28;20291;-73
2022/03/24 08:40:11;;;;;;;59.13;51.63;;;13.10;78.00;;;;;;5035290;28;20280;-73
2022/03/24 08:42:37;;;;;;;61.63;50.20;;;13.10;77.40;;;;;;5034815;28;20284;-73
2022/03/24 08:45:09;;;;;;;65.73;51.80;;;13.10;77.70;;;;;;5035088;28;20284;-73
2022/03/24 08:47:35;;;;;;;64.53;50.70;;;13.10;77.70;;;;;;5034951;28;20338;-73
2022/03/24 08:50:02;;;;;;;68.53;50.33;;;13.10;77.70;;;;;;5035116;28;20318;-73
2022/03/24 08:52:28;;;;;;;64.97;49.77;;;13.10;77.40;;;;;;5034566;28;20300;-72
2022/03/24 08:54:54;;;;;;;59.90;45.50;;;13.10;77.90;;;;;;5033959;28;20620;-72
2022/03/24 08:57:27;;;;;;;60.20;45.83;;;13.20;76.80;;;;;;5034624;28;20050;-72
2022/03/24 09:00:00;;;;;;;60.20;45.87;;;13.20;75.40;;;;;;5033731;28;20838;-72
2022/03/24 09:02:27;;;;;;;62.17;46.00;;;13.10;74.60;;;;;;5034634;28;20322;-71
2022/03/24 09:04:53;;;;;;;60.87;45.67;;;13.10;75.20;;;;;;5034868;28;20325;-71
2022/03/24 09:07:19;;;;;;;58.63;45.10;;;13.10;75.30;;;;;;5034357;28;20292;-71
2022/03/24 09:09:45;;;;;;;60.50;45.47;;;13.20;75.30;;;;;;5034125;28;20069;-77
2022/03/24 09:12:11;;;;;;;58.97;47.33;;;13.20;75.30;;;;;;5034668;28;20071;-71
2022/03/24 09:14:41;;;;;;;61.73;46.33;;;13.20;74.70;;;;;;5017031;28;20096;-72
2022/03/24 09:17:08;;;;;;;60.10;46.30;;;13.20;74.90;;;;;;5034614;28;20279;-74
2022/03/24 09:19:34;;;;;;;61.87;46.17;;;13.20;75.30;;;;;;5034296;28;20287;-73
2022/03/24 09:22:03;;;;;;;53.43;46.73;;;13.30;75.80;;;;;;5033509;28;20627;-71
2022/03/24 09:24:29;;;;;;;66.37;46.40;;;13.30;75.50;;;;;;5034051;28;20295;-71
2022/03/24 09:26:55;;;;;;;58.20;45.90;;;13.40;75.00;;;;;;5034299;28;20350;-74
2022/03/24 09:29:22;;;;;;;55.43;44.67;;;13.40;75.10;;;;;;5033194;28;20721;-76
2022/03/24 09:31:48;;;;;;;56.03;45.27;;;13.50;74.50;;;;;;5034317;28;20091;-72
2022/03/24 09:34:14;;;;;;;58.07;45.33;;;13.50;75.00;;;;;;5034110;28;20417;-76
2022/03/24 09:36:40;;;;;;;60.97;45.63;;;13.50;75.60;;;;;;5032631;28;20284;-84
2022/03/24 09:39:10;;;;;;;55.87;42.30;;;13.50;75.40;;;;;;5033086;28;20284;-85
2022/03/24 09:41:37;;;;;;;54.63;44.43;;;13.60;74.90;;;;;;5033638;28;20478;-73
2022/03/24 09:44:04;;;;;;;59.13;42.03;;;13.70;75.00;;;;;;5033683;28;20831;-73
2022/03/24 09:46:31;;;;;;;62.73;42.67;;;13.70;74.60;;;;;;5032473;28;20371;-74
2022/03/24 09:48:58;;;;;;;56.83;45.27;;;13.80;74.40;;;;;;5033880;28;20338;-73
2022/03/24 09:51:25;;;;;;;54.17;38.93;;;13.90;74.00;;;;;;5016181;28;20276;-73
2022/03/24 09:53:57;;;;;;;46.47;38.10;;;13.90;72.80;;;;;;5031882;28;20315;-74
2022/03/24 09:56:23;;;;;;;46.77;39.27;;;13.90;72.10;;;;;;5033778;28;20288;-74
2022/03/24 09:58:49;;;;;;;51.23;39.70;;;14.00;70.40;;;;;;5033842;28;20291;-74
2022/03/24 10:01:15;;;;;;;48.20;36.50;;;14.00;69.60;;;;;;5033808;28;20129;-74
2022/03/24 10:04:04;;;;;;;45.70;34.90;;;14.10;69.60;;;;;;5033816;28;20280;-74
2022/03/24 10:06:30;;;;;;;49.87;36.60;;;14.30;67.00;;;;;;5033533;28;20280;-73
2022/03/24 10:08:55;;;;;;;42.37;34.33;;;14.30;68.20;;;;;;5033598;28;20373;-73
2022/03/24 10:11:24;;;;;;;44.90;34.50;;;14.30;68.00;;;;;;5033544;28;20485;-78
2022/03/24 10:13:57;;;;;;;47.10;38.37;;;14.40;67.80;;;;;;5032924;28;20464;-74
2022/03/24 10:16:40;;;;;;;45.77;33.77;;;14.40;68.40;;;;;;5033897;28;20284;-74
2022/03/24 10:19:15;;;;;;;59.60;42.00;;;14.50;67.00;;;;;;5017686;28;20335;-74
2022/03/24 10:21:49;;;;;;;52.17;39.88;;;14.50;66.50;;;;;;5033307;28;20624;-74
2022/03/24 10:24:21;;;;;;;50.08;37.47;;;14.60;65.60;;;;;;5032515;28;20042;-74
2022/03/24 10:26:49;;;;;;;50.30;39.70;;;14.60;64.50;;;;;;5032066;28;20110;-74
2022/03/24 10:29:20;;;;;;;45.70;34.53;;;14.70;63.70;;;;;;5033537;28;20280;-74
2022/03/24 10:31:55;;;;;;;39.13;30.80;;;14.70;62.90;;;;;;5033174;28;20394;-73
2022/03/24 10:34:38;;;;;;;41.47;31.42;;;14.80;62.40;;;;;;5033361;28;20308;-74
2022/03/24 10:37:17;;;;;;;40.90;33.13;;;14.80;62.50;;;;;;5033529;28;20128;-74
2022/03/24 10:40:03;;;;;;;43.80;30.43;;;14.80;62.50;;;;;;5033008;28;20284;-74
2022/03/24 10:42:35;;;;;;;38.10;29.60;;;14.80;60.50;;;;;;5032127;28;20338;-74
2022/03/24 10:45:17;;;;;;;38.23;29.70;;;14.80;60.70;;;;;;5033488;28;20311;-74
2022/03/24 10:47:49;;;;;;;37.20;27.07;;;14.80;60.90;;;;;;5033126;28;20330;-74
2022/03/24 10:50:38;;;;;;;41.70;25.57;;;14.80;58.90;;;;;;5033037;28;20284;-74
2022/03/24 10:53:12;;;;;;;33.20;22.77;;;14.90;58.40;;;;;;5032968;28;20292;-74
2022/03/24 10:55:44;;;;;;;28.27;17.98;;;14.90;58.10;;;;;;5032963;28;20414;-74
2022/03/24 10:58:28;;;;;;;28.80;18.37;;;14.80;57.00;;;;;;5031865;28;20050;-74
2022/03/24 11:00:58;;;;;;;31.90;17.47;;;14.90;56.20;;;;;;5032994;28;20307;-74
2022/03/24 11:03:24;;;;;;;29.73;18.93;;;;;;;;;;5032963;28;20283;-74
2022/03/24 11:05:51;;;;;;;28.87;21.23;;;15.10;54.40;;;;;;5032718;28;20288;-74
2022/03/24 11:08:18;;;;;;;36.40;26.17;;;15.10;55.20;;;;;;5032990;28;20292;-74
2022/03/24 11:10:46;;;;;;;38.90;27.70;;;15.10;56.00;;;;;;5032785;28;20284;-74
2022/03/24 11:13:23;;;;;;;39.73;29.77;;;15.20;56.30;;;;;;5032815;28;20354;-74
2022/03/24 11:15:51;;;;;;;39.20;26.33;;;15.20;57.10;;;;;;5032761;28;20280;-74
2022/03/24 11:18:16;;;;;;;39.67;28.93;;;15.30;56.50;;;;;;5032841;28;20315;-74
2022/03/24 11:20:43;;;;;;;47.30;33.40;;;15.30;56.80;;;;;;5032549;28;20323;-74
2022/03/24 11:23:22;;;;;;;46.23;34.53;;;15.30;57.80;;;;;;5032773;28;20045;-74
2022/03/24 11:25:53;;;;;;;49.40;36.73;;;15.30;58.50;;;;;;5032540;28;20287;-74
2022/03/24 11:28:23;;;;;;;48.87;36.60;;;15.30;58.70;;;;;;5032817;28;20338;-74
2022/03/24 11:30:50;;;;;;;43.63;32.57;;;15.40;58.20;;;;;;5032325;28;20756;-74
2022/03/24 11:33:17;;;;;;;42.13;33.17;;;15.40;58.20;;;;;;5014936;28;20332;-74
2022/03/24 11:35:43;;;;;;;47.57;35.67;;;15.40;58.50;;;;;;5031216;28;20402;-74
2022/03/24 11:38:09;;;;;;;48.23;34.80;;;15.40;59.00;;;;;;5032863;28;20371;-74
2022/03/24 11:40:36;;;;;;;47.20;35.80;;;15.30;59.30;;;;;;5032364;28;20049;-74
2022/03/24 11:43:09;;;;;;;44.77;35.83;;;15.30;59.70;;;;;;5032626;28;20276;-74
2022/03/24 11:45:40;;;;;;;44.47;34.93;;;15.30;59.70;;;;;;5032552;28;20287;-74
2022/03/24 11:48:08;;;;;;;47.93;36.77;;;15.20;59.80;;;;;;5032926;28;20299;-74
2022/03/24 11:50:46;;;;;;;47.10;35.67;;;15.10;59.90;;;;;;5032313;28;20779;-75
2022/03/24 11:53:15;;;;;;;46.03;33.90;;;15.20;60.00;;;;;;5034244;28;20304;-74
2022/03/24 11:56:04;;;;;;;50.03;35.20;;;15.20;59.60;;;;;;5035999;28;20303;-74
2022/03/24 11:58:34;;;;;;;48.83;35.40;;;15.30;59.30;;;;;;5036008;28;20291;-80
2022/03/24 12:01:20;;;;;;;50.47;35.43;;;15.30;59.20;;;;;;5036068;28;20284;-74
2022/03/24 12:03:59;;;;;;;43.60;33.87;;;15.40;59.20;;;;;;5021666;28;20289;-73
2022/03/24 12:06:48;;;;;;;47.57;35.93;;;15.30;59.30;;;;;;5036030;28;20323;-73
2022/03/24 12:09:21;;;;;;;44.30;29.67;;;15.30;59.70;;;;;;5034447;28;20826;-73
2022/03/24 12:11:53;;;;;;;43.33;34.90;;;15.30;59.50;;;;;;5035722;28;20312;-74
2022/03/24 12:14:42;;;;;;;42.90;34.00;;;15.30;60.00;;;;;;5036027;28;20292;-73
2022/03/24 12:17:21;;;;;;;47.57;34.97;;;15.30;59.50;;;;;;5037248;28;20668;-73
2022/03/24 12:19:51;;;;;;;43.27;33.83;;;15.40;59.90;;;;;;5035659;28;20288;-73
2022/03/24 12:22:26;;;;;;;45.20;34.40;;;15.50;59.70;;;;;;5035700;28;20327;-73
2022/03/24 12:24:53;;;;;;;47.50;35.10;;;15.60;59.20;;;;;;5035497;28;20615;-73
2022/03/24 12:27:19;;;;;;;43.97;33.53;;;15.60;59.80;;;;;;5034657;28;20045;-73
2022/03/24 12:30:11;;;;;;;49.33;32.67;;;15.70;60.00;;;;;;5033896;28;20760;-73
2022/03/24 12:32:38;;;;;;;42.53;32.47;;;15.70;59.90;;;;;;5035357;28;20300;-73
2022/03/24 12:35:04;;;;;;;38.10;30.67;;;15.60;60.00;;;;;;5035463;28;20284;-73
2022/03/24 12:37:33;;;;;;;37.83;31.33;;;15.60;60.30;;;;;;5035522;28;20399;-73